sensor_id;sensor_type;location;lat;lon;timestamp;P1;durP1;ratioP1;P2;durP2;ratioP2
68275;SDS011;55106;51.438;-0.098;2022-07-06T00:01:26;4.45;;;1.50;;
68275;SDS011;55106;51.438;-0.098;2022-07-06T00:03:52;5.50;;;1.60;;
68275;SDS011;55106;51.438;-0.098;2022-07-06T00:06:17;5.87;;;1.80;;
68275;SDS011;55106;51.438;-0.098;2022-07-06T00:08:43;5.10;;;1.77;;
68275;SDS011;55106;51.438;-0.098;2022-07-06T00:11:09;6.07;;;1.73;;
68275;SDS011;55106;51.438;-0.098;2022-07-06T00:13:35;5.80;;;1.80;;
68275;SDS011;55106;51.438;-0.098;2022-07-06T00:16:00;4.43;;;1.60;;
68275;SDS011;55106;51.438;-0.098;2022-07-06T00:18:26;4.97;;;1.70;;
68275;SDS011;55106;51.438;-0.098;2022-07-06T00:20:51;7.10;;;1.90;;
68275;SDS011;55106;51.438;-0.098;2022-07-06T00:23:17;6.40;;;1.70;;
68275;SDS011;55106;51.438;-0.098;2022-07-06T00:25:43;5.53;;;2.33;;
68275;SDS011;55106;51.438;-0.098;2022-07-06T00:28:09;6.23;;;2.07;;
68275;SDS011;55106;51.438;-0.098;2022-07-06T00:30:34;5.97;;;1.77;;
68275;SDS011;55106;51.438;-0.098;2022-07-06T00:32:59;5.13;;;1.83;;
68275;SDS011;55106;51.438;-0.098;2022-07-06T00:35:25;6.57;;;1.97;;
68275;SDS011;55106;51.438;-0.098;2022-07-06T00:37:51;5.47;;;1.88;;
68275;SDS011;55106;51.438;-0.098;2022-07-06T00:40:17;5.10;;;1.73;;
68275;SDS011;55106;51.438;-0.098;2022-07-06T00:42:43;7.13;;;1.90;;
68275;SDS011;55106;51.438;-0.098;2022-07-06T00:45:10;5.68;;;1.80;;
68275;SDS011;55106;51.438;-0.098;2022-07-06T00:47:37;6.65;;;1.90;;
68275;SDS011;55106;51.438;-0.098;2022-07-06T00:50:03;7.70;;;1.63;;
68275;SDS011;55106;51.438;-0.098;2022-07-06T00:52:38;6.07;;;1.58;;
68275;SDS011;55106;51.438;-0.098;2022-07-06T00:55:04;5.80;;;1.90;;
68275;SDS011;55106;51.438;-0.098;2022-07-06T00:57:30;7.53;;;1.97;;
68275;SDS011;55106;51.438;-0.098;2022-07-06T00:59:56;4.57;;;1.90;;
68275;SDS011;55106;51.438;-0.098;2022-07-06T01:02:21;6.27;;;1.90;;
68275;SDS011;55106;51.438;-0.098;2022-07-06T01:04:47;8.13;;;1.90;;
68275;SDS011;55106;51.438;-0.098;2022-07-06T01:07:13;5.27;;;1.63;;
68275;SDS011;55106;51.438;-0.098;2022-07-06T01:09:38;5.45;;;1.75;;
68275;SDS011;55106;51.438;-0.098;2022-07-06T01:12:04;7.57;;;2.17;;
68275;SDS011;55106;51.438;-0.098;2022-07-06T01:14:30;5.93;;;1.85;;
68275;SDS011;55106;51.438;-0.098;2022-07-06T01:16:56;4.88;;;2.20;;
68275;SDS011;55106;51.438;-0.098;2022-07-06T01:19:22;6.30;;;2.00;;
68275;SDS011;55106;51.438;-0.098;2022-07-06T01:21:48;5.97;;;1.90;;
68275;SDS011;55106;51.438;-0.098;2022-07-06T01:24:13;6.00;;;1.90;;
68275;SDS011;55106;51.438;-0.098;2022-07-06T01:26:38;7.00;;;2.33;;
68275;SDS011;55106;51.438;-0.098;2022-07-06T01:29:04;8.53;;;2.33;;
68275;SDS011;55106;51.438;-0.098;2022-07-06T01:31:29;6.93;;;2.05;;
68275;SDS011;55106;51.438;-0.098;2022-07-06T01:33:55;7.77;;;1.90;;
68275;SDS011;55106;51.438;-0.098;2022-07-06T01:36:22;6.50;;;1.90;;
68275;SDS011;55106;51.438;-0.098;2022-07-06T01:38:51;6.55;;;2.20;;
68275;SDS011;55106;51.438;-0.098;2022-07-06T01:41:18;5.43;;;1.87;;
68275;SDS011;55106;51.438;-0.098;2022-07-06T01:43:44;6.60;;;2.10;;
68275;SDS011;55106;51.438;-0.098;2022-07-06T01:46:11;5.85;;;1.92;;
68275;SDS011;55106;51.438;-0.098;2022-07-06T01:48:37;6.88;;;2.10;;
68275;SDS011;55106;51.438;-0.098;2022-07-06T01:51:03;4.90;;;2.00;;
68275;SDS011;55106;51.438;-0.098;2022-07-06T01:53:29;7.43;;;2.40;;
68275;SDS011;55106;51.438;-0.098;2022-07-06T01:55:55;5.82;;;1.90;;
68275;SDS011;55106;51.438;-0.098;2022-07-06T01:58:20;6.37;;;2.07;;
68275;SDS011;55106;51.438;-0.098;2022-07-06T02:00:46;5.05;;;1.90;;
68275;SDS011;55106;51.438;-0.098;2022-07-06T02:03:12;7.47;;;2.17;;
68275;SDS011;55106;51.438;-0.098;2022-07-06T02:05:37;5.53;;;2.30;;
68275;SDS011;55106;51.438;-0.098;2022-07-06T02:08:03;7.25;;;2.20;;
68275;SDS011;55106;51.438;-0.098;2022-07-06T02:10:28;6.37;;;2.10;;
68275;SDS011;55106;51.438;-0.098;2022-07-06T02:12:53;8.67;;;2.23;;
68275;SDS011;55106;51.438;-0.098;2022-07-06T02:15:19;7.17;;;2.07;;
68275;SDS011;55106;51.438;-0.098;2022-07-06T02:17:44;6.90;;;2.20;;
68275;SDS011;55106;51.438;-0.098;2022-07-06T02:20:10;6.47;;;2.10;;
68275;SDS011;55106;51.438;-0.098;2022-07-06T02:22:35;7.23;;;2.03;;
68275;SDS011;55106;51.438;-0.098;2022-07-06T02:25:01;8.23;;;2.53;;
68275;SDS011;55106;51.438;-0.098;2022-07-06T02:27:26;5.40;;;2.30;;
68275;SDS011;55106;51.438;-0.098;2022-07-06T02:29:52;5.80;;;2.20;;
68275;SDS011;55106;51.438;-0.098;2022-07-06T02:32:17;5.33;;;2.00;;
68275;SDS011;55106;51.438;-0.098;2022-07-06T02:34:43;6.73;;;2.00;;
68275;SDS011;55106;51.438;-0.098;2022-07-06T02:37:08;9.20;;;2.30;;
68275;SDS011;55106;51.438;-0.098;2022-07-06T02:39:34;5.83;;;2.00;;
68275;SDS011;55106;51.438;-0.098;2022-07-06T02:41:59;6.63;;;2.63;;
68275;SDS011;55106;51.438;-0.098;2022-07-06T02:44:25;8.65;;;2.20;;
68275;SDS011;55106;51.438;-0.098;2022-07-06T02:46:50;7.33;;;2.70;;
68275;SDS011;55106;51.438;-0.098;2022-07-06T02:49:16;5.80;;;2.20;;
68275;SDS011;55106;51.438;-0.098;2022-07-06T02:51:41;6.63;;;2.50;;
68275;SDS011;55106;51.438;-0.098;2022-07-06T02:54:06;5.97;;;2.43;;
68275;SDS011;55106;51.438;-0.098;2022-07-06T02:56:32;7.00;;;2.17;;
68275;SDS011;55106;51.438;-0.098;2022-07-06T02:58:57;6.00;;;2.20;;
68275;SDS011;55106;51.438;-0.098;2022-07-06T03:01:23;8.83;;;2.50;;
68275;SDS011;55106;51.438;-0.098;2022-07-06T03:03:48;9.07;;;2.30;;
68275;SDS011;55106;51.438;-0.098;2022-07-06T03:06:13;6.87;;;2.17;;
68275;SDS011;55106;51.438;-0.098;2022-07-06T03:08:39;7.50;;;2.20;;
68275;SDS011;55106;51.438;-0.098;2022-07-06T03:11:04;7.27;;;2.20;;
68275;SDS011;55106;51.438;-0.098;2022-07-06T03:13:30;7.50;;;2.20;;
68275;SDS011;55106;51.438;-0.098;2022-07-06T03:15:55;5.70;;;2.20;;
68275;SDS011;55106;51.438;-0.098;2022-07-06T03:18:21;7.90;;;2.60;;
68275;SDS011;55106;51.438;-0.098;2022-07-06T03:20:46;6.80;;;2.70;;
68275;SDS011;55106;51.438;-0.098;2022-07-06T03:23:12;7.77;;;2.60;;
68275;SDS011;55106;51.438;-0.098;2022-07-06T03:25:37;7.37;;;2.73;;
68275;SDS011;55106;51.438;-0.098;2022-07-06T03:28:03;6.53;;;2.25;;
68275;SDS011;55106;51.438;-0.098;2022-07-06T03:30:29;5.10;;;2.10;;
68275;SDS011;55106;51.438;-0.098;2022-07-06T03:32:54;9.63;;;2.47;;
68275;SDS011;55106;51.438;-0.098;2022-07-06T03:35:20;7.18;;;2.60;;
68275;SDS011;55106;51.438;-0.098;2022-07-06T03:37:45;6.30;;;2.40;;
68275;SDS011;55106;51.438;-0.098;2022-07-06T03:40:11;7.87;;;2.53;;
68275;SDS011;55106;51.438;-0.098;2022-07-06T03:42:36;7.35;;;2.90;;
68275;SDS011;55106;51.438;-0.098;2022-07-06T03:45:02;6.57;;;2.30;;
68275;SDS011;55106;51.438;-0.098;2022-07-06T03:47:29;7.55;;;2.40;;
68275;SDS011;55106;51.438;-0.098;2022-07-06T03:49:54;7.23;;;2.10;;
68275;SDS011;55106;51.438;-0.098;2022-07-06T03:52:20;8.40;;;2.60;;
68275;SDS011;55106;51.438;-0.098;2022-07-06T03:54:45;6.27;;;2.30;;
68275;SDS011;55106;51.438;-0.098;2022-07-06T03:57:11;6.60;;;2.28;;
68275;SDS011;55106;51.438;-0.098;2022-07-06T03:59:38;8.90;;;2.60;;
68275;SDS011;55106;51.438;-0.098;2022-07-06T04:02:06;6.27;;;2.20;;
68275;SDS011;55106;51.438;-0.098;2022-07-06T04:04:33;9.02;;;2.55;;
68275;SDS011;55106;51.438;-0.098;2022-07-06T04:06:59;9.47;;;2.60;;
68275;SDS011;55106;51.438;-0.098;2022-07-06T04:09:24;8.20;;;2.35;;
68275;SDS011;55106;51.438;-0.098;2022-07-06T04:11:50;5.47;;;2.20;;
68275;SDS011;55106;51.438;-0.098;2022-07-06T04:14:15;8.53;;;2.20;;
68275;SDS011;55106;51.438;-0.098;2022-07-06T04:16:40;6.87;;;2.30;;
68275;SDS011;55106;51.438;-0.098;2022-07-06T04:19:06;8.40;;;2.57;;
68275;SDS011;55106;51.438;-0.098;2022-07-06T04:21:31;7.73;;;2.53;;
68275;SDS011;55106;51.438;-0.098;2022-07-06T04:23:57;5.27;;;2.13;;
68275;SDS011;55106;51.438;-0.098;2022-07-06T04:26:22;9.17;;;2.30;;
68275;SDS011;55106;51.438;-0.098;2022-07-06T04:28:48;6.67;;;2.30;;
68275;SDS011;55106;51.438;-0.098;2022-07-06T04:31:16;9.80;;;2.20;;
68275;SDS011;55106;51.438;-0.098;2022-07-06T04:33:42;6.37;;;2.37;;
68275;SDS011;55106;51.438;-0.098;2022-07-06T04:36:08;7.15;;;2.22;;
68275;SDS011;55106;51.438;-0.098;2022-07-06T04:38:34;7.38;;;2.20;;
68275;SDS011;55106;51.438;-0.098;2022-07-06T04:40:59;5.80;;;2.10;;
68275;SDS011;55106;51.438;-0.098;2022-07-06T04:43:25;7.77;;;2.30;;
68275;SDS011;55106;51.438;-0.098;2022-07-06T04:45:50;9.50;;;2.70;;
68275;SDS011;55106;51.438;-0.098;2022-07-06T04:48:16;6.93;;;2.10;;
68275;SDS011;55106;51.438;-0.098;2022-07-06T04:50:41;6.23;;;2.10;;
68275;SDS011;55106;51.438;-0.098;2022-07-06T04:53:06;4.93;;;2.07;;
68275;SDS011;55106;51.438;-0.098;2022-07-06T04:55:32;5.40;;;2.13;;
68275;SDS011;55106;51.438;-0.098;2022-07-06T04:57:57;6.93;;;2.30;;
68275;SDS011;55106;51.438;-0.098;2022-07-06T05:00:23;7.93;;;2.60;;
68275;SDS011;55106;51.438;-0.098;2022-07-06T05:02:48;6.73;;;2.50;;
68275;SDS011;55106;51.438;-0.098;2022-07-06T05:05:13;7.43;;;2.30;;
68275;SDS011;55106;51.438;-0.098;2022-07-06T05:07:39;5.83;;;2.30;;
68275;SDS011;55106;51.438;-0.098;2022-07-06T05:10:08;6.60;;;2.33;;
68275;SDS011;55106;51.438;-0.098;2022-07-06T05:12:34;5.45;;;1.95;;
68275;SDS011;55106;51.438;-0.098;2022-07-06T05:15:00;6.63;;;2.20;;
68275;SDS011;55106;51.438;-0.098;2022-07-06T05:17:25;7.53;;;2.37;;
68275;SDS011;55106;51.438;-0.098;2022-07-06T05:19:51;7.53;;;2.60;;
68275;SDS011;55106;51.438;-0.098;2022-07-06T05:22:17;7.28;;;2.20;;
68275;SDS011;55106;51.438;-0.098;2022-07-06T05:24:42;8.40;;;2.33;;
68275;SDS011;55106;51.438;-0.098;2022-07-06T05:27:07;6.70;;;2.10;;
68275;SDS011;55106;51.438;-0.098;2022-07-06T05:29:33;9.50;;;2.45;;
68275;SDS011;55106;51.438;-0.098;2022-07-06T05:31:58;7.67;;;2.20;;
68275;SDS011;55106;51.438;-0.098;2022-07-06T05:34:24;5.60;;;2.07;;
68275;SDS011;55106;51.438;-0.098;2022-07-06T05:36:49;8.47;;;2.60;;
68275;SDS011;55106;51.438;-0.098;2022-07-06T05:39:14;7.50;;;2.70;;
68275;SDS011;55106;51.438;-0.098;2022-07-06T05:41:44;8.27;;;2.17;;
68275;SDS011;55106;51.438;-0.098;2022-07-06T05:44:10;6.70;;;2.20;;
68275;SDS011;55106;51.438;-0.098;2022-07-06T05:46:35;7.53;;;2.00;;
68275;SDS011;55106;51.438;-0.098;2022-07-06T05:49:00;8.93;;;2.47;;
68275;SDS011;55106;51.438;-0.098;2022-07-06T05:51:44;6.03;;;1.92;;
68275;SDS011;55106;51.438;-0.098;2022-07-06T05:54:10;9.03;;;2.00;;
68275;SDS011;55106;51.438;-0.098;2022-07-06T05:56:35;8.40;;;2.50;;
68275;SDS011;55106;51.438;-0.098;2022-07-06T05:59:00;8.75;;;2.20;;
68275;SDS011;55106;51.438;-0.098;2022-07-06T06:01:26;7.30;;;2.77;;
68275;SDS011;55106;51.438;-0.098;2022-07-06T06:03:51;8.43;;;2.77;;
68275;SDS011;55106;51.438;-0.098;2022-07-06T06:06:17;9.83;;;2.97;;
68275;SDS011;55106;51.438;-0.098;2022-07-06T06:08:42;11.77;;;2.40;;
68275;SDS011;55106;51.438;-0.098;2022-07-06T06:11:08;8.57;;;2.00;;
68275;SDS011;55106;51.438;-0.098;2022-07-06T06:13:33;7.13;;;2.20;;
68275;SDS011;55106;51.438;-0.098;2022-07-06T06:15:58;7.70;;;2.40;;
68275;SDS011;55106;51.438;-0.098;2022-07-06T06:18:24;10.00;;;2.20;;
68275;SDS011;55106;51.438;-0.098;2022-07-06T06:20:49;5.57;;;2.00;;
68275;SDS011;55106;51.438;-0.098;2022-07-06T06:23:14;7.00;;;2.33;;
68275;SDS011;55106;51.438;-0.098;2022-07-06T06:25:40;8.23;;;2.13;;
68275;SDS011;55106;51.438;-0.098;2022-07-06T06:28:09;6.55;;;2.15;;
68275;SDS011;55106;51.438;-0.098;2022-07-06T06:30:35;7.38;;;1.90;;
68275;SDS011;55106;51.438;-0.098;2022-07-06T06:35:30;7.07;;;2.90;;
68275;SDS011;55106;51.438;-0.098;2022-07-06T06:37:56;10.15;;;2.00;;
68275;SDS011;55106;51.438;-0.098;2022-07-06T06:40:21;6.90;;;2.40;;
68275;SDS011;55106;51.438;-0.098;2022-07-06T06:42:47;8.88;;;2.35;;
68275;SDS011;55106;51.438;-0.098;2022-07-06T06:45:13;7.53;;;2.07;;
68275;SDS011;55106;51.438;-0.098;2022-07-06T06:47:38;7.07;;;2.50;;
68275;SDS011;55106;51.438;-0.098;2022-07-06T06:50:03;7.90;;;1.97;;
68275;SDS011;55106;51.438;-0.098;2022-07-06T06:52:29;6.43;;;2.20;;
68275;SDS011;55106;51.438;-0.098;2022-07-06T06:54:55;6.63;;;2.10;;
68275;SDS011;55106;51.438;-0.098;2022-07-06T06:57:20;5.30;;;2.30;;
68275;SDS011;55106;51.438;-0.098;2022-07-06T06:59:46;5.97;;;2.00;;
68275;SDS011;55106;51.438;-0.098;2022-07-06T07:02:11;7.13;;;2.30;;
68275;SDS011;55106;51.438;-0.098;2022-07-06T07:04:36;6.07;;;2.17;;
68275;SDS011;55106;51.438;-0.098;2022-07-06T07:07:02;6.13;;;2.00;;
68275;SDS011;55106;51.438;-0.098;2022-07-06T07:09:28;8.18;;;2.00;;
68275;SDS011;55106;51.438;-0.098;2022-07-06T07:11:53;7.43;;;2.27;;
68275;SDS011;55106;51.438;-0.098;2022-07-06T07:14:19;7.47;;;2.05;;
68275;SDS011;55106;51.438;-0.098;2022-07-06T07:16:45;7.50;;;2.10;;
68275;SDS011;55106;51.438;-0.098;2022-07-06T07:19:11;7.20;;;2.40;;
68275;SDS011;55106;51.438;-0.098;2022-07-06T07:21:36;8.57;;;2.20;;
68275;SDS011;55106;51.438;-0.098;2022-07-06T07:24:01;8.20;;;2.37;;
68275;SDS011;55106;51.438;-0.098;2022-07-06T07:26:27;7.13;;;2.23;;
68275;SDS011;55106;51.438;-0.098;2022-07-06T07:28:53;8.23;;;2.57;;
68275;SDS011;55106;51.438;-0.098;2022-07-06T07:31:18;5.63;;;2.20;;
68275;SDS011;55106;51.438;-0.098;2022-07-06T07:33:44;8.25;;;2.13;;
68275;SDS011;55106;51.438;-0.098;2022-07-06T07:36:09;5.87;;;1.93;;
68275;SDS011;55106;51.438;-0.098;2022-07-06T07:38:34;7.73;;;1.77;;
68275;SDS011;55106;51.438;-0.098;2022-07-06T07:41:00;5.73;;;2.03;;
68275;SDS011;55106;51.438;-0.098;2022-07-06T07:43:25;7.47;;;2.47;;
68275;SDS011;55106;51.438;-0.098;2022-07-06T07:45:51;5.88;;;2.05;;
68275;SDS011;55106;51.438;-0.098;2022-07-06T07:48:17;6.32;;;2.35;;
68275;SDS011;55106;51.438;-0.098;2022-07-06T07:50:42;8.63;;;2.23;;
68275;SDS011;55106;51.438;-0.098;2022-07-06T07:53:08;5.27;;;2.07;;
68275;SDS011;55106;51.438;-0.098;2022-07-06T07:55:33;8.33;;;2.07;;
68275;SDS011;55106;51.438;-0.098;2022-07-06T07:57:59;8.15;;;1.90;;
68275;SDS011;55106;51.438;-0.098;2022-07-06T08:00:24;5.57;;;2.10;;
68275;SDS011;55106;51.438;-0.098;2022-07-06T08:02:53;7.25;;;1.85;;
68275;SDS011;55106;51.438;-0.098;2022-07-06T08:05:19;7.30;;;2.33;;
68275;SDS011;55106;51.438;-0.098;2022-07-06T08:07:45;4.90;;;1.97;;
68275;SDS011;55106;51.438;-0.098;2022-07-06T08:10:10;5.20;;;1.80;;
68275;SDS011;55106;51.438;-0.098;2022-07-06T08:12:37;5.40;;;2.00;;
68275;SDS011;55106;51.438;-0.098;2022-07-06T08:15:03;7.00;;;1.90;;
68275;SDS011;55106;51.438;-0.098;2022-07-06T08:17:30;5.78;;;2.10;;
68275;SDS011;55106;51.438;-0.098;2022-07-06T08:19:55;5.40;;;1.90;;
68275;SDS011;55106;51.438;-0.098;2022-07-06T08:22:21;6.10;;;2.10;;
68275;SDS011;55106;51.438;-0.098;2022-07-06T08:24:47;6.63;;;1.80;;
68275;SDS011;55106;51.438;-0.098;2022-07-06T08:27:12;4.90;;;1.63;;
68275;SDS011;55106;51.438;-0.098;2022-07-06T08:29:38;5.68;;;1.73;;
68275;SDS011;55106;51.438;-0.098;2022-07-06T08:32:03;5.47;;;1.80;;
68275;SDS011;55106;51.438;-0.098;2022-07-06T08:34:29;5.20;;;1.80;;
68275;SDS011;55106;51.438;-0.098;2022-07-06T08:36:54;6.30;;;2.03;;
68275;SDS011;55106;51.438;-0.098;2022-07-06T08:39:20;5.17;;;1.40;;
68275;SDS011;55106;51.438;-0.098;2022-07-06T08:41:45;6.33;;;1.90;;
68275;SDS011;55106;51.438;-0.098;2022-07-06T08:44:14;3.72;;;1.33;;
68275;SDS011;55106;51.438;-0.098;2022-07-06T08:46:41;4.78;;;1.70;;
68275;SDS011;55106;51.438;-0.098;2022-07-06T08:49:07;5.37;;;1.40;;
68275;SDS011;55106;51.438;-0.098;2022-07-06T08:51:34;3.92;;;1.65;;
68275;SDS011;55106;51.438;-0.098;2022-07-06T08:54:02;4.72;;;1.50;;
68275;SDS011;55106;51.438;-0.098;2022-07-06T08:56:27;3.93;;;1.50;;
68275;SDS011;55106;51.438;-0.098;2022-07-06T08:58:53;5.35;;;1.40;;
68275;SDS011;55106;51.438;-0.098;2022-07-06T09:01:19;5.75;;;1.40;;
68275;SDS011;55106;51.438;-0.098;2022-07-06T09:03:46;4.88;;;1.73;;
68275;SDS011;55106;51.438;-0.098;2022-07-06T09:06:14;4.23;;;1.37;;
68275;SDS011;55106;51.438;-0.098;2022-07-06T09:08:41;4.78;;;1.40;;
68275;SDS011;55106;51.438;-0.098;2022-07-06T09:11:08;5.30;;;1.35;;
68275;SDS011;55106;51.438;-0.098;2022-07-06T09:13:34;4.23;;;1.30;;
68275;SDS011;55106;51.438;-0.098;2022-07-06T09:16:09;4.70;;;1.43;;
68275;SDS011;55106;51.438;-0.098;2022-07-06T09:18:36;4.45;;;1.40;;
68275;SDS011;55106;51.438;-0.098;2022-07-06T09:21:03;4.88;;;1.52;;
68275;SDS011;55106;51.438;-0.098;2022-07-06T09:23:28;3.83;;;1.48;;
68275;SDS011;55106;51.438;-0.098;2022-07-06T09:25:54;5.27;;;1.40;;
68275;SDS011;55106;51.438;-0.098;2022-07-06T09:28:20;4.57;;;1.20;;
68275;SDS011;55106;51.438;-0.098;2022-07-06T09:30:45;4.83;;;1.40;;
68275;SDS011;55106;51.438;-0.098;2022-07-06T09:33:10;5.37;;;1.60;;
68275;SDS011;55106;51.438;-0.098;2022-07-06T09:35:38;6.00;;;1.40;;
68275;SDS011;55106;51.438;-0.098;2022-07-06T09:40:31;4.15;;;1.10;;
68275;SDS011;55106;51.438;-0.098;2022-07-06T09:43:09;6.28;;;1.50;;
68275;SDS011;55106;51.438;-0.098;2022-07-06T09:45:35;4.72;;;1.63;;
68275;SDS011;55106;51.438;-0.098;2022-07-06T09:48:12;4.45;;;1.45;;
68275;SDS011;55106;51.438;-0.098;2022-07-06T09:50:49;4.30;;;1.57;;
68275;SDS011;55106;51.438;-0.098;2022-07-06T09:53:16;5.15;;;1.60;;
68275;SDS011;55106;51.438;-0.098;2022-07-06T09:55:46;4.60;;;1.55;;
68275;SDS011;55106;51.438;-0.098;2022-07-06T09:58:13;4.80;;;1.40;;
68275;SDS011;55106;51.438;-0.098;2022-07-06T10:00:40;3.97;;;1.20;;
68275;SDS011;55106;51.438;-0.098;2022-07-06T10:03:06;5.17;;;1.70;;
68275;SDS011;55106;51.438;-0.098;2022-07-06T10:05:32;4.85;;;1.30;;
68275;SDS011;55106;51.438;-0.098;2022-07-06T10:08:00;3.75;;;1.30;;
68275;SDS011;55106;51.438;-0.098;2022-07-06T10:10:27;4.72;;;1.50;;
68275;SDS011;55106;51.438;-0.098;2022-07-06T10:12:54;4.15;;;1.40;;
68275;SDS011;55106;51.438;-0.098;2022-07-06T10:15:22;4.37;;;1.50;;
68275;SDS011;55106;51.438;-0.098;2022-07-06T10:17:51;6.00;;;1.30;;
68275;SDS011;55106;51.438;-0.098;2022-07-06T10:20:17;4.38;;;1.17;;
68275;SDS011;55106;51.438;-0.098;2022-07-06T10:22:45;4.90;;;1.50;;
68275;SDS011;55106;51.438;-0.098;2022-07-06T10:25:12;4.13;;;1.60;;
68275;SDS011;55106;51.438;-0.098;2022-07-06T10:27:42;5.73;;;1.80;;
68275;SDS011;55106;51.438;-0.098;2022-07-06T10:30:08;4.43;;;1.40;;
68275;SDS011;55106;51.438;-0.098;2022-07-06T10:32:34;4.95;;;1.35;;
68275;SDS011;55106;51.438;-0.098;2022-07-06T10:35:01;4.95;;;1.40;;
68275;SDS011;55106;51.438;-0.098;2022-07-06T10:37:27;4.20;;;1.50;;
68275;SDS011;55106;51.438;-0.098;2022-07-06T10:39:54;6.53;;;1.80;;
68275;SDS011;55106;51.438;-0.098;2022-07-06T10:42:38;7.13;;;1.70;;
68275;SDS011;55106;51.438;-0.098;2022-07-06T10:45:15;7.47;;;1.73;;
68275;SDS011;55106;51.438;-0.098;2022-07-06T10:47:58;4.90;;;1.88;;
68275;SDS011;55106;51.438;-0.098;2022-07-06T10:50:39;5.72;;;1.48;;
68275;SDS011;55106;51.438;-0.098;2022-07-06T10:53:11;4.20;;;1.30;;
68275;SDS011;55106;51.438;-0.098;2022-07-06T10:55:47;3.97;;;1.30;;
68275;SDS011;55106;51.438;-0.098;2022-07-06T10:58:15;4.20;;;1.10;;
68275;SDS011;55106;51.438;-0.098;2022-07-06T11:00:59;5.72;;;1.30;;
68275;SDS011;55106;51.438;-0.098;2022-07-06T11:03:32;4.88;;;1.40;;
68275;SDS011;55106;51.438;-0.098;2022-07-06T11:06:04;5.22;;;1.30;;
68275;SDS011;55106;51.438;-0.098;2022-07-06T11:08:47;4.63;;;1.60;;
68275;SDS011;55106;51.438;-0.098;2022-07-06T11:11:25;3.90;;;1.27;;
68275;SDS011;55106;51.438;-0.098;2022-07-06T11:16:17;3.67;;;1.13;;
68275;SDS011;55106;51.438;-0.098;2022-07-06T11:18:50;3.38;;;1.10;;
68275;SDS011;55106;51.438;-0.098;2022-07-06T11:21:32;4.30;;;1.27;;
68275;SDS011;55106;51.438;-0.098;2022-07-06T11:24:01;4.13;;;1.33;;
68275;SDS011;55106;51.438;-0.098;2022-07-06T11:26:28;3.88;;;1.10;;
68275;SDS011;55106;51.438;-0.098;2022-07-06T11:28:55;3.90;;;1.40;;
68275;SDS011;55106;51.438;-0.098;2022-07-06T11:31:23;4.50;;;1.00;;
68275;SDS011;55106;51.438;-0.098;2022-07-06T11:33:49;4.17;;;1.10;;
68275;SDS011;55106;51.438;-0.098;2022-07-06T11:36:15;3.15;;;1.00;;
68275;SDS011;55106;51.438;-0.098;2022-07-06T11:38:42;3.83;;;1.20;;
68275;SDS011;55106;51.438;-0.098;2022-07-06T11:41:08;6.90;;;1.10;;
68275;SDS011;55106;51.438;-0.098;2022-07-06T11:43:36;3.70;;;1.00;;
68275;SDS011;55106;51.438;-0.098;2022-07-06T11:46:02;6.22;;;1.30;;
68275;SDS011;55106;51.438;-0.098;2022-07-06T11:48:28;4.00;;;1.10;;
68275;SDS011;55106;51.438;-0.098;2022-07-06T11:50:57;3.50;;;1.10;;
68275;SDS011;55106;51.438;-0.098;2022-07-06T11:53:26;4.30;;;0.97;;
68275;SDS011;55106;51.438;-0.098;2022-07-06T11:55:52;4.50;;;1.17;;
68275;SDS011;55106;51.438;-0.098;2022-07-06T11:58:22;14.15;;;2.38;;
68275;SDS011;55106;51.438;-0.098;2022-07-06T12:03:29;4.00;;;1.00;;
68275;SDS011;55106;51.438;-0.098;2022-07-06T12:05:54;4.20;;;1.10;;
68275;SDS011;55106;51.438;-0.098;2022-07-06T12:08:20;4.20;;;1.17;;
68275;SDS011;55106;51.438;-0.098;2022-07-06T12:10:45;4.50;;;1.00;;
68275;SDS011;55106;51.438;-0.098;2022-07-06T12:13:11;4.57;;;1.20;;
68275;SDS011;55106;51.438;-0.098;2022-07-06T12:15:36;4.00;;;1.20;;
68275;SDS011;55106;51.438;-0.098;2022-07-06T12:18:01;4.67;;;1.43;;
68275;SDS011;55106;51.438;-0.098;2022-07-06T12:20:27;4.87;;;1.00;;
68275;SDS011;55106;51.438;-0.098;2022-07-06T12:23:05;3.80;;;1.00;;
68275;SDS011;55106;51.438;-0.098;2022-07-06T12:25:31;4.17;;;1.03;;
68275;SDS011;55106;51.438;-0.098;2022-07-06T12:27:57;3.13;;;1.27;;
68275;SDS011;55106;51.438;-0.098;2022-07-06T12:30:23;3.83;;;1.10;;
68275;SDS011;55106;51.438;-0.098;2022-07-06T12:33:31;3.47;;;1.00;;
68275;SDS011;55106;51.438;-0.098;2022-07-06T12:35:41;3.25;;;1.10;;
68275;SDS011;55106;51.438;-0.098;2022-07-06T12:38:07;4.65;;;0.90;;
68275;SDS011;55106;51.438;-0.098;2022-07-06T12:40:34;3.40;;;0.93;;
68275;SDS011;55106;51.438;-0.098;2022-07-06T12:43:01;3.15;;;0.98;;
68275;SDS011;55106;51.438;-0.098;2022-07-06T12:45:27;3.97;;;1.05;;
68275;SDS011;55106;51.438;-0.098;2022-07-06T12:47:56;3.28;;;1.00;;
68275;SDS011;55106;51.438;-0.098;2022-07-06T12:50:29;4.00;;;1.00;;
68275;SDS011;55106;51.438;-0.098;2022-07-06T12:52:57;5.03;;;1.00;;
68275;SDS011;55106;51.438;-0.098;2022-07-06T12:55:26;3.50;;;1.00;;
68275;SDS011;55106;51.438;-0.098;2022-07-06T12:57:55;3.17;;;1.00;;
68275;SDS011;55106;51.438;-0.098;2022-07-06T13:00:22;5.07;;;1.60;;
68275;SDS011;55106;51.438;-0.098;2022-07-06T13:02:48;4.60;;;1.20;;
68275;SDS011;55106;51.438;-0.098;2022-07-06T13:05:19;3.88;;;0.95;;
68275;SDS011;55106;51.438;-0.098;2022-07-06T13:07:56;4.10;;;1.20;;
68275;SDS011;55106;51.438;-0.098;2022-07-06T13:10:23;4.13;;;1.00;;
68275;SDS011;55106;51.438;-0.098;2022-07-06T13:12:49;5.95;;;1.23;;
68275;SDS011;55106;51.438;-0.098;2022-07-06T13:15:15;4.47;;;1.35;;
68275;SDS011;55106;51.438;-0.098;2022-07-06T13:17:41;4.10;;;1.37;;
68275;SDS011;55106;51.438;-0.098;2022-07-06T13:20:09;4.15;;;1.35;;
68275;SDS011;55106;51.438;-0.098;2022-07-06T13:22:35;3.50;;;1.20;;
68275;SDS011;55106;51.438;-0.098;2022-07-06T13:25:01;3.50;;;1.20;;
68275;SDS011;55106;51.438;-0.098;2022-07-06T13:27:27;6.15;;;1.30;;
68275;SDS011;55106;51.438;-0.098;2022-07-06T13:29:53;3.27;;;1.10;;
68275;SDS011;55106;51.438;-0.098;2022-07-06T13:32:19;4.75;;;1.10;;
68275;SDS011;55106;51.438;-0.098;2022-07-06T13:34:45;5.00;;;0.93;;
68275;SDS011;55106;51.438;-0.098;2022-07-06T13:37:10;3.80;;;1.17;;
68275;SDS011;55106;51.438;-0.098;2022-07-06T13:39:35;3.90;;;1.00;;
68275;SDS011;55106;51.438;-0.098;2022-07-06T13:42:01;3.40;;;1.10;;
68275;SDS011;55106;51.438;-0.098;2022-07-06T13:44:28;3.38;;;1.20;;
68275;SDS011;55106;51.438;-0.098;2022-07-06T13:46:54;3.78;;;1.50;;
68275;SDS011;55106;51.438;-0.098;2022-07-06T13:49:19;3.60;;;1.20;;
68275;SDS011;55106;51.438;-0.098;2022-07-06T13:51:45;3.53;;;1.30;;
68275;SDS011;55106;51.438;-0.098;2022-07-06T13:54:11;3.87;;;1.20;;
68275;SDS011;55106;51.438;-0.098;2022-07-06T13:56:37;3.80;;;1.10;;
68275;SDS011;55106;51.438;-0.098;2022-07-06T13:59:04;4.00;;;1.47;;
68275;SDS011;55106;51.438;-0.098;2022-07-06T14:01:30;4.93;;;1.58;;
68275;SDS011;55106;51.438;-0.098;2022-07-06T14:03:55;4.72;;;1.30;;
68275;SDS011;55106;51.438;-0.098;2022-07-06T14:06:21;4.73;;;1.30;;
68275;SDS011;55106;51.438;-0.098;2022-07-06T14:08:46;4.60;;;1.37;;
68275;SDS011;55106;51.438;-0.098;2022-07-06T14:11:12;4.93;;;1.30;;
68275;SDS011;55106;51.438;-0.098;2022-07-06T14:13:38;4.77;;;1.37;;
68275;SDS011;55106;51.438;-0.098;2022-07-06T14:16:03;6.00;;;1.60;;
68275;SDS011;55106;51.438;-0.098;2022-07-06T14:18:29;4.97;;;1.40;;
68275;SDS011;55106;51.438;-0.098;2022-07-06T14:20:55;4.07;;;1.40;;
68275;SDS011;55106;51.438;-0.098;2022-07-06T14:23:21;5.07;;;1.50;;
68275;SDS011;55106;51.438;-0.098;2022-07-06T14:25:47;4.75;;;1.50;;
68275;SDS011;55106;51.438;-0.098;2022-07-06T14:28:15;4.13;;;1.20;;
68275;SDS011;55106;51.438;-0.098;2022-07-06T14:30:42;4.97;;;1.40;;
68275;SDS011;55106;51.438;-0.098;2022-07-06T14:33:09;4.00;;;1.33;;
68275;SDS011;55106;51.438;-0.098;2022-07-06T14:35:36;4.50;;;1.70;;
68275;SDS011;55106;51.438;-0.098;2022-07-06T14:38:07;4.38;;;1.50;;
68275;SDS011;55106;51.438;-0.098;2022-07-06T14:40:33;5.35;;;1.73;;